createdAt,value
2018-04-09T00:00:25.715Z,90.50
2018-04-09T00:02:53.904Z,90.70
2018-04-09T00:05:21.312Z,90.70
2018-04-09T00:07:49.509Z,91.00
2018-04-09T00:10:16.924Z,91.00
2018-04-09T00:12:45.099Z,91.10
2018-04-09T00:15:12.498Z,91.00
2018-04-09T00:17:40.008Z,90.70
2018-04-09T00:20:07.420Z,91.10
2018-04-09T00:22:34.848Z,91.20
2018-04-09T00:25:03.018Z,92.10
2018-04-09T00:27:30.438Z,91.80
2018-04-09T00:29:58.592Z,91.60
2018-04-09T00:32:26.012Z,91.60
2018-04-09T00:34:53.441Z,92.40
2018-04-09T00:37:20.857Z,91.70
2018-04-09T00:39:48.259Z,92.00
2018-04-09T00:42:16.436Z,92.10
2018-04-09T00:44:43.908Z,92.00
2018-04-09T00:47:12.041Z,92.30
2018-04-09T00:49:39.439Z,92.30
2018-04-09T00:52:06.861Z,92.20
2018-04-09T00:54:34.292Z,92.50
2018-04-09T00:57:01.714Z,92.50
2018-04-09T00:59:29.139Z,92.60
2018-04-09T01:01:57.341Z,93.10
2018-04-09T01:04:24.766Z,93.10
2018-04-09T01:06:52.185Z,93.10
2018-04-09T01:09:20.365Z,93.50
2018-04-09T01:11:47.768Z,93.50
2018-04-09T01:14:15.937Z,93.90
2018-04-09T01:16:44.120Z,93.90
2018-04-09T01:19:11.549Z,93.90
2018-04-09T01:21:38.960Z,94.00
2018-04-09T01:24:06.400Z,94.20
2018-04-09T01:26:33.911Z,94.20
2018-04-09T01:29:01.304Z,94.30
2018-04-09T01:31:29.499Z,94.50
2018-04-09T01:33:57.363Z,94.50
2018-04-09T01:36:24.755Z,94.60
2018-04-09T01:38:52.928Z,95.00
2018-04-09T01:41:20.337Z,95.00
2018-04-09T01:43:47.847Z,94.60
2018-04-09T01:46:15.269Z,94.90
2018-04-09T01:48:42.688Z,94.50
2018-04-09T01:51:10.855Z,94.70
2018-04-09T01:53:38.268Z,94.70
2018-04-09T01:56:06.447Z,95.20
2018-04-09T01:58:33.859Z,95.10
2018-04-09T02:01:01.258Z,95.50
2018-04-09T02:03:28.688Z,95.10
2018-04-09T02:05:56.110Z,95.30
2018-04-09T02:08:24.293Z,95.80
2018-04-09T02:10:51.701Z,95.70
2018-04-09T02:13:19.880Z,95.60
2018-04-09T02:15:47.300Z,95.60
2018-04-09T02:18:15.520Z,95.60
2018-04-09T02:20:42.929Z,95.60
2018-04-09T02:23:10.340Z,95.80
2018-04-09T02:25:38.529Z,96.10
2018-04-09T02:28:05.948Z,96.10
2018-04-09T02:30:34.161Z,96.60
2018-04-09T02:33:01.570Z,96.60
2018-04-09T02:35:28.981Z,96.40
2018-04-09T02:37:57.170Z,96.70
2018-04-09T02:40:24.592Z,96.70
2018-04-09T02:42:52.792Z,97.00
2018-04-09T02:45:20.195Z,96.90
2018-04-09T02:47:47.689Z,96.40
2018-04-09T02:50:15.102Z,96.50
2018-04-09T02:52:42.517Z,96.60
2018-04-09T02:55:10.698Z,96.80
2018-04-09T02:57:38.122Z,96.70
2018-04-09T03:00:06.291Z,97.00
2018-04-09T03:02:33.713Z,96.90
2018-04-09T03:05:01.913Z,96.90
2018-04-09T03:07:29.333Z,96.90
2018-04-09T03:09:56.755Z,97.30
2018-04-09T03:12:24.173Z,97.20
2018-04-09T03:14:51.575Z,96.80
2018-04-09T03:17:18.984Z,97.10
2018-04-09T03:19:46.395Z,97.60
2018-04-09T03:22:13.925Z,97.50
2018-04-09T03:24:41.336Z,97.70
2018-04-09T03:27:08.782Z,98.30
2018-04-09T03:29:36.956Z,97.70
2018-04-09T03:32:04.490Z,97.70
2018-04-09T03:34:31.912Z,97.80
2018-04-09T03:36:59.311Z,97.80
2018-04-09T03:39:26.752Z,98.10
2018-04-09T03:41:54.965Z,98.20
2018-04-09T03:44:22.372Z,97.90
2018-04-09T03:46:50.553Z,97.60
2018-04-09T03:49:17.969Z,97.60
2018-04-09T03:51:46.148Z,97.70
2018-04-09T03:54:13.588Z,97.60
2018-04-09T03:56:41.748Z,97.50
2018-04-09T03:59:09.173Z,97.50
2018-04-09T04:01:36.583Z,97.40
2018-04-09T04:04:04.000Z,97.70
2018-04-09T04:06:31.408Z,97.80
2018-04-09T04:08:58.828Z,98.00
2018-04-09T04:11:26.240Z,98.20
2018-04-09T04:13:53.708Z,98.20
2018-04-09T04:16:32.928Z,98.10
2018-04-09T04:22:18.507Z,98.10
2018-04-09T04:24:46.683Z,98.60
2018-04-09T04:27:14.085Z,98.60
2018-04-09T04:29:41.499Z,99.00
2018-04-09T04:32:09.030Z,99.00
2018-04-09T04:34:36.440Z,98.70
2018-04-09T04:37:03.851Z,99.00
2018-04-09T04:39:31.268Z,99.30
2018-04-09T04:41:58.671Z,99.50
2018-04-09T04:44:26.081Z,99.80
2018-04-09T04:46:54.259Z,99.90
2018-04-09T04:49:21.676Z,99.90
2018-04-09T04:51:49.091Z,99.70
2018-04-09T04:54:16.512Z,99.70
2018-04-09T04:56:43.924Z,99.90
2018-04-09T04:59:11.336Z,99.90
2018-04-09T05:01:38.759Z,99.10
2018-04-09T05:04:06.183Z,98.80
2018-04-09T05:06:33.594Z,99.00
2018-04-09T05:09:00.992Z,98.60
2018-04-09T05:11:29.904Z,99.70
2018-04-09T05:13:57.328Z,99.70
2018-04-09T05:16:25.515Z,98.90
2018-04-09T05:18:52.928Z,98.90
2018-04-09T05:21:20.340Z,98.70
2018-04-09T05:23:47.744Z,98.10
2018-04-09T05:26:15.160Z,97.90
2018-04-09T05:28:43.337Z,97.80
2018-04-09T05:31:10.756Z,97.90
2018-04-09T05:33:38.952Z,98.30
2018-04-09T05:36:06.361Z,98.00
2018-04-09T05:38:34.544Z,98.30
2018-04-09T05:41:01.963Z,98.30
2018-04-09T05:43:30.132Z,98.10
2018-04-09T05:45:57.556Z,98.10
2018-04-09T05:48:25.736Z,97.90
2018-04-09T05:50:53.909Z,97.90
2018-04-09T05:53:21.314Z,97.90
2018-04-09T05:55:48.727Z,98.10
2018-04-09T05:58:16.132Z,98.40
2018-04-09T06:00:43.544Z,98.50
2018-04-09T06:03:11.732Z,99.20
2018-04-09T06:05:39.151Z,99.20
2018-04-09T06:08:18.132Z,98.50
2018-04-09T06:10:45.588Z,98.50
2018-04-09T06:13:12.972Z,98.90
2018-04-09T06:15:40.392Z,98.80
2018-04-09T06:18:08.564Z,98.00
2018-04-09T06:20:35.978Z,98.00
2018-04-09T06:23:04.153Z,98.00
2018-04-09T06:25:31.567Z,97.90
2018-04-09T06:27:58.979Z,97.80
2018-04-09T06:30:26.389Z,97.20
2018-04-09T06:32:53.796Z,97.30
2018-04-09T06:35:21.983Z,97.30
2018-04-09T06:37:50.162Z,97.50
2018-04-09T06:40:17.616Z,97.50
2018-04-09T06:42:44.996Z,97.00
2018-04-09T06:45:13.173Z,96.50
2018-04-09T06:47:40.592Z,96.50
2018-04-09T06:50:08.074Z,96.40
2018-04-09T06:52:35.479Z,96.30
2018-04-09T06:55:03.650Z,95.80
2018-04-09T06:57:31.847Z,95.80
2018-04-09T06:59:59.262Z,95.70
2018-04-09T07:02:26.685Z,96.00
2018-04-09T07:04:54.877Z,96.50
2018-04-09T07:07:22.287Z,96.50
2018-04-09T07:09:49.704Z,97.50
2018-04-09T07:12:17.116Z,96.40
2018-04-09T07:14:44.532Z,96.10
2018-04-09T07:17:11.952Z,96.30
2018-04-09T07:19:40.148Z,95.20
2018-04-09T07:22:07.558Z,95.20
2018-04-09T07:24:35.784Z,94.40
2018-04-09T07:27:03.168Z,94.40
2018-04-09T07:29:30.597Z,94.40
2018-04-09T07:31:58.774Z,93.50
2018-04-09T07:34:26.197Z,93.50
2018-04-09T07:36:54.363Z,93.60
2018-04-09T07:39:21.772Z,93.60
2018-04-09T07:41:49.197Z,93.20
2018-04-09T07:44:16.620Z,93.60
2018-04-09T07:46:44.040Z,94.10
2018-04-09T07:49:11.460Z,93.40
2018-04-09T07:51:38.869Z,93.50
2018-04-09T07:54:06.387Z,93.60
2018-04-09T07:56:33.801Z,93.30
2018-04-09T07:59:01.232Z,93.50
2018-04-09T08:01:29.396Z,91.50
2018-04-09T08:03:56.800Z,91.40
2018-04-09T08:06:24.270Z,91.30
2018-04-09T08:08:51.638Z,91.00
2018-04-09T08:11:19.065Z,91.40
2018-04-09T08:13:46.492Z,91.50
2018-04-09T08:16:14.668Z,90.20
2018-04-09T08:18:42.124Z,90.20
2018-04-09T08:21:09.551Z,88.50
2018-04-09T08:23:36.960Z,88.60
2018-04-09T08:26:05.135Z,86.40
2018-04-09T08:28:32.548Z,86.40
2018-04-09T08:30:59.963Z,86.00
2018-04-09T08:33:27.488Z,84.90
2018-04-09T08:35:54.887Z,84.50
2018-04-09T08:38:23.069Z,84.30
2018-04-09T08:40:50.482Z,84.30
2018-04-09T08:43:17.902Z,82.00
2018-04-09T08:45:45.303Z,83.60
2018-04-09T08:48:12.718Z,82.80
2018-04-09T08:50:40.896Z,80.20
2018-04-09T08:53:08.364Z,80.20
2018-04-09T08:55:35.836Z,80.10
2018-04-09T08:58:03.188Z,80.10
2018-04-09T09:00:30.604Z,82.80
2018-04-09T09:02:58.036Z,81.40
2018-04-09T09:05:25.460Z,78.60
2018-04-09T09:07:52.904Z,77.60
2018-04-09T09:10:20.315Z,76.00
2018-04-09T09:12:47.725Z,74.90
2018-04-09T09:15:15.137Z,72.20
2018-04-09T09:17:42.549Z,69.90
2018-04-09T09:20:09.960Z,72.70
2018-04-09T09:22:38.153Z,70.00
2018-04-09T09:25:05.583Z,70.00
2018-04-09T09:27:33.000Z,69.70
2018-04-09T09:30:01.180Z,70.90
2018-04-09T09:32:28.587Z,70.90
2018-04-09T09:34:56.008Z,74.50
2018-04-09T09:37:23.412Z,73.70
2018-04-09T09:39:50.834Z,72.70
2018-04-09T09:42:19.024Z,71.10
2018-04-09T09:44:46.473Z,71.00
2018-04-09T09:47:13.913Z,71.20
2018-04-09T09:49:41.328Z,72.90
2018-04-09T09:52:08.740Z,71.60
2018-04-09T09:54:36.148Z,71.10
2018-04-09T09:57:03.560Z,69.00
2018-04-09T09:59:31.017Z,67.30
2018-04-09T10:01:58.433Z,69.20
2018-04-09T10:04:26.612Z,70.10
2018-04-09T10:06:54.024Z,69.90
2018-04-09T10:09:22.218Z,66.20
2018-04-09T10:11:49.621Z,66.10
2018-04-09T10:14:17.796Z,65.20
2018-04-09T10:16:45.210Z,64.80
2018-04-09T10:19:12.712Z,65.30
2018-04-09T10:21:40.128Z,65.50
2018-04-09T10:24:07.540Z,63.10
2018-04-09T10:26:34.952Z,66.30
2018-04-09T10:29:02.356Z,65.50
2018-04-09T10:31:29.781Z,63.50
2018-04-09T10:33:57.991Z,61.10
2018-04-09T10:36:25.416Z,61.00
2018-04-09T10:38:52.833Z,59.20
2018-04-09T10:41:21.049Z,60.90
2018-04-09T10:43:48.456Z,60.90
2018-04-09T10:46:15.904Z,61.10
2018-04-09T10:48:43.316Z,59.60
2018-04-09T10:51:10.737Z,58.80
2018-04-09T10:53:38.904Z,57.70
2018-04-09T10:56:07.084Z,56.20
2018-04-09T10:58:34.497Z,56.20
2018-04-09T11:01:02.689Z,57.00
2018-04-09T11:03:30.100Z,56.90
2018-04-09T11:05:58.271Z,56.40
2018-04-09T11:08:25.676Z,56.20
2018-04-09T11:10:53.097Z,55.70
2018-04-09T11:13:20.510Z,57.40
2018-04-09T11:15:47.973Z,56.60
2018-04-09T11:18:15.392Z,54.10
2018-04-09T11:20:42.814Z,53.70
2018-04-09T11:23:10.979Z,55.10
2018-04-09T11:25:38.448Z,55.00
2018-04-09T11:28:05.853Z,54.90
2018-04-09T11:30:33.329Z,53.60
2018-04-09T11:33:00.733Z,51.30
2018-04-09T11:35:28.916Z,49.10
2018-04-09T11:37:56.335Z,48.80
2018-04-09T11:40:24.526Z,48.20
2018-04-09T11:42:51.938Z,47.50
2018-04-09T11:45:20.119Z,40.90
2018-04-09T11:47:47.590Z,40.80
2018-04-09T11:50:15.011Z,43.90
2018-04-09T11:52:42.418Z,44.70
2018-04-09T11:55:10.595Z,40.20
2018-04-09T11:57:38.005Z,40.10
2018-04-09T12:00:05.407Z,41.50
2018-04-09T12:02:32.843Z,42.40
2018-04-09T12:05:00.247Z,44.30
2018-04-09T12:07:27.672Z,39.30
2018-04-09T12:09:55.071Z,39.40
2018-04-09T12:12:22.479Z,39.30
2018-04-09T12:14:49.899Z,37.60
2018-04-09T12:17:18.079Z,36.80
2018-04-09T12:19:45.486Z,36.80
2018-04-09T12:22:12.898Z,37.80
2018-04-09T12:24:40.323Z,35.80
2018-04-09T12:27:07.749Z,35.40
2018-04-09T12:29:35.306Z,35.40
2018-04-09T12:32:02.715Z,33.90
2018-04-09T12:34:30.913Z,33.20
2018-04-09T12:36:58.346Z,33.10
2018-04-09T12:39:25.798Z,34.10
2018-04-09T12:41:53.206Z,35.10
2018-04-09T12:44:20.623Z,35.00
2018-04-09T12:46:48.032Z,34.10
2018-04-09T12:49:15.434Z,34.50
2018-04-09T12:51:42.859Z,33.60
2018-04-09T12:54:11.046Z,36.20
2018-04-09T12:56:38.450Z,35.50
2018-04-09T12:59:06.618Z,36.10
2018-04-09T13:01:34.091Z,36.00
2018-04-09T13:04:01.530Z,36.10
2018-04-09T13:06:28.938Z,36.20
2018-04-09T13:08:57.110Z,36.10
2018-04-09T13:11:24.514Z,36.00
2018-04-09T13:13:52.018Z,34.10
2018-04-09T13:16:19.420Z,34.60
2018-04-09T13:18:47.593Z,31.60
2018-04-09T13:21:15.104Z,31.60
2018-04-09T13:23:42.490Z,33.00
2018-04-09T13:26:09.890Z,32.50
2018-04-09T13:28:38.067Z,30.90
2018-04-09T13:31:06.237Z,32.80
2018-04-09T13:33:33.649Z,32.80
2018-04-09T13:36:01.855Z,33.00
2018-04-09T13:38:29.267Z,32.40
2018-04-09T13:40:57.465Z,31.50
2018-04-09T13:43:24.866Z,31.50
2018-04-09T13:45:53.052Z,33.70
2018-04-09T13:48:20.458Z,33.60
2018-04-09T13:50:48.630Z,33.90
2018-04-09T13:53:16.041Z,33.90
2018-04-09T13:55:43.533Z,36.20
2018-04-09T13:58:10.982Z,35.20
2018-04-09T14:00:38.405Z,36.30
2018-04-09T14:03:06.571Z,35.90
2018-04-09T14:05:33.966Z,35.90
2018-04-09T14:08:01.375Z,35.90
2018-04-09T14:10:28.782Z,34.50
2018-04-09T14:12:56.185Z,31.60
2018-04-09T14:15:23.713Z,31.20
2018-04-09T14:17:51.104Z,29.20
2018-04-09T14:20:19.302Z,30.80
2018-04-09T14:22:46.716Z,31.40
2018-04-09T14:25:14.106Z,31.50
2018-04-09T14:27:41.625Z,30.00
2018-04-09T14:30:09.021Z,32.30
2018-04-09T14:32:37.226Z,31.80
2018-04-09T14:35:04.619Z,31.70
2018-04-09T14:37:32.790Z,32.40
2018-04-09T14:40:00.307Z,32.30
2018-04-09T14:42:27.675Z,33.10
2018-04-09T14:44:55.090Z,32.60
2018-04-09T14:47:22.495Z,33.50
2018-04-09T14:49:49.899Z,33.20
2018-04-09T14:52:17.310Z,33.40
2018-04-09T14:54:44.715Z,32.30
2018-04-09T14:57:12.142Z,33.00
2018-04-09T14:59:39.599Z,33.10
2018-04-09T15:02:07.038Z,34.00
2018-04-09T15:04:34.437Z,34.20
2018-04-09T15:07:02.597Z,33.40
2018-04-09T15:09:30.002Z,33.30
2018-04-09T15:11:57.410Z,33.50
2018-04-09T15:14:24.819Z,33.20
2018-04-09T15:16:52.990Z,33.50
2018-04-09T15:19:20.425Z,33.40
2018-04-09T15:21:47.806Z,34.70
2018-04-09T15:24:15.217Z,34.50
2018-04-09T15:26:42.610Z,34.50
2018-04-09T15:29:10.122Z,34.70
2018-04-09T15:31:37.534Z,34.90
2018-04-09T15:34:04.951Z,34.70
2018-04-09T15:36:33.123Z,34.90
2018-04-09T15:39:01.298Z,34.30
2018-04-09T15:41:28.751Z,34.30
2018-04-09T15:43:56.158Z,34.80
2018-04-09T15:46:24.343Z,36.90
2018-04-09T15:48:51.798Z,36.90
2018-04-09T15:51:19.206Z,35.00
2018-04-09T15:53:47.374Z,34.90
2018-04-09T15:56:14.843Z,34.80
2018-04-09T15:58:42.246Z,34.80
2018-04-09T16:01:10.433Z,34.20
2018-04-09T16:03:37.878Z,34.20
2018-04-09T16:06:05.290Z,34.80
2018-04-09T16:08:33.494Z,36.10
2018-04-09T16:11:00.901Z,36.10
2018-04-09T16:13:28.462Z,36.80
2018-04-09T16:15:55.861Z,37.60
2018-04-09T16:18:24.034Z,38.50
2018-04-09T16:20:52.215Z,39.10
2018-04-09T16:23:19.622Z,39.00
2018-04-09T16:25:47.826Z,40.50
2018-04-09T16:28:15.229Z,40.40
2018-04-09T16:30:43.434Z,40.30
2018-04-09T16:33:10.850Z,40.30
2018-04-09T16:35:38.250Z,40.30
2018-04-09T16:38:05.750Z,40.70
2018-04-09T16:40:33.150Z,41.10
2018-04-09T16:43:01.327Z,41.40
2018-04-09T16:45:28.734Z,41.40
2018-04-09T16:47:56.139Z,41.30
2018-04-09T16:50:23.537Z,41.60
2018-04-09T16:52:51.730Z,41.20
2018-04-09T16:55:19.135Z,41.20
2018-04-09T16:57:47.330Z,41.40
2018-04-09T17:00:14.730Z,41.40
2018-04-09T17:02:42.898Z,41.50
2018-04-09T17:05:11.074Z,41.90
2018-04-09T17:07:38.479Z,41.90
2018-04-09T17:10:05.969Z,42.30
2018-04-09T17:12:33.381Z,44.90
2018-04-09T17:15:01.556Z,47.40
2018-04-09T17:17:28.961Z,47.30
2018-04-09T17:19:56.410Z,48.50
2018-04-09T17:22:23.778Z,50.00
2018-04-09T17:24:51.238Z,51.60
2018-04-09T17:27:18.656Z,54.10
2018-04-09T17:29:46.127Z,55.90
2018-04-09T17:32:13.570Z,57.10
2018-04-09T17:34:40.979Z,58.30
2018-04-09T17:37:09.168Z,60.80
2018-04-09T17:39:36.569Z,60.80
2018-04-09T17:42:04.754Z,63.50
2018-04-09T17:44:32.180Z,63.70
2018-04-09T17:47:00.354Z,65.80
2018-04-09T17:49:27.767Z,65.80
2018-04-09T17:51:55.939Z,67.10
2018-04-09T17:54:23.359Z,67.00
2018-04-09T17:56:50.771Z,67.70
2018-04-09T17:59:18.194Z,68.40
2018-04-09T18:01:45.594Z,69.10
2018-04-09T18:04:13.784Z,70.50
2018-04-09T18:06:41.194Z,70.50
2018-04-09T18:09:09.391Z,72.00
2018-04-09T18:11:36.807Z,71.90
2018-04-09T18:14:04.265Z,72.50
2018-04-09T18:16:31.693Z,73.30
2018-04-09T18:18:59.147Z,74.10
2018-04-09T18:21:26.559Z,75.00
2018-04-09T18:23:54.738Z,77.70
2018-04-09T18:26:22.150Z,77.70
2018-04-09T18:28:50.330Z,80.20
2018-04-09T18:31:17.751Z,80.10
2018-04-09T18:33:45.930Z,81.80
2018-04-09T18:36:13.341Z,81.80
2018-04-09T18:38:40.751Z,82.70
2018-04-09T18:41:08.182Z,83.50
2018-04-09T18:43:35.595Z,84.30
2018-04-09T18:46:03.767Z,85.40
2018-04-09T18:48:31.248Z,85.40
2018-04-09T18:50:58.634Z,86.60
2018-04-09T18:53:26.819Z,86.80
2018-04-09T18:55:54.267Z,86.80
2018-04-09T18:58:21.679Z,87.10
2018-04-09T19:00:49.871Z,87.60
2018-04-09T19:03:17.293Z,88.40
2018-04-09T19:05:44.702Z,87.90
2018-04-09T19:08:12.114Z,88.40
2018-04-09T19:10:39.519Z,88.10
2018-04-09T19:13:06.932Z,88.10
2018-04-09T19:15:34.357Z,87.80
2018-04-09T19:18:01.755Z,87.60
2018-04-09T19:20:29.163Z,87.50
2018-04-09T19:22:56.572Z,87.10
2018-04-09T19:25:24.091Z,87.10
2018-04-09T19:27:52.274Z,87.40
2018-04-09T19:30:19.701Z,86.50
2018-04-09T19:32:47.118Z,87.00
2018-04-09T19:35:14.547Z,87.40
2018-04-09T19:37:48.329Z,88.00
2018-04-09T19:40:21.458Z,88.00
2018-04-09T19:42:48.878Z,88.30
2018-04-09T19:45:16.312Z,88.50
2018-04-09T19:47:43.753Z,88.40
2018-04-09T19:50:11.191Z,88.80
2018-04-09T19:52:38.594Z,88.60
2018-04-09T19:55:06.813Z,89.20
2018-04-09T19:57:34.197Z,89.20
2018-04-09T20:00:01.621Z,89.80
2018-04-09T20:02:29.031Z,90.00
2018-04-09T20:04:56.426Z,90.00
2018-04-09T20:07:24.593Z,90.20
2018-04-09T20:09:52.079Z,90.20
2018-04-09T20:12:19.506Z,90.10
2018-04-09T20:14:46.910Z,90.30
2018-04-09T20:17:15.078Z,90.80
2018-04-09T20:19:42.497Z,90.80
2018-04-09T20:22:09.968Z,90.90
2018-04-09T20:24:37.444Z,90.90
2018-04-09T20:27:04.842Z,90.90
2018-04-09T20:29:32.330Z,90.70
2018-04-09T20:31:59.730Z,90.80
2018-04-09T20:34:27.950Z,90.80
2018-04-09T20:36:55.371Z,90.90
2018-04-09T20:39:22.786Z,91.10
2018-04-09T20:41:50.187Z,91.30
2018-04-09T20:44:17.602Z,91.30
2018-04-09T20:46:45.017Z,91.60
2018-04-09T20:49:12.422Z,91.70
2018-04-09T20:51:40.609Z,91.80
2018-04-09T20:54:08.023Z,91.80
2018-04-09T20:56:36.197Z,91.70
2018-04-09T20:59:03.679Z,91.70
2018-04-09T21:01:31.090Z,91.90
2018-04-09T21:03:58.524Z,92.00
2018-04-09T21:06:25.941Z,92.00
2018-04-09T21:08:53.470Z,92.00
2018-04-09T21:11:20.917Z,92.00
2018-04-09T21:13:48.315Z,92.20
2018-04-09T21:16:15.738Z,92.30
2018-04-09T21:18:43.144Z,92.50
2018-04-09T21:21:11.674Z,92.80
2018-04-09T21:23:39.107Z,92.80
2018-04-09T21:26:06.515Z,92.90
2018-04-09T21:28:34.682Z,93.30
2018-04-09T21:31:02.086Z,93.20
2018-04-09T21:33:29.508Z,93.40
2018-04-09T21:35:56.914Z,93.50
2018-04-09T21:38:24.370Z,93.60
2018-04-09T21:40:51.786Z,93.70
2018-04-09T21:43:19.198Z,93.80
2018-04-09T21:45:46.703Z,93.90
2018-04-09T21:48:14.130Z,94.30
2018-04-09T21:50:41.550Z,94.50
2018-04-09T21:53:09.047Z,94.60
2018-04-09T21:55:36.446Z,95.00
2018-04-09T21:58:03.854Z,95.30
2018-04-09T22:00:32.033Z,95.80
2018-04-09T22:02:59.447Z,95.70
2018-04-09T22:05:26.858Z,95.90
2018-04-09T22:07:54.278Z,96.20
2018-04-09T22:10:21.690Z,96.40
2018-04-09T22:12:49.866Z,96.90
2018-04-09T22:15:17.282Z,96.90
2018-04-09T22:17:45.481Z,97.00
2018-04-09T22:20:12.885Z,97.00
2018-04-09T22:22:41.050Z,96.90
2018-04-09T22:25:09.234Z,96.80
2018-04-09T22:27:36.652Z,96.80
2018-04-09T22:30:04.840Z,96.90
2018-04-09T22:32:32.263Z,96.90
2018-04-09T22:34:59.662Z,97.00
2018-04-09T22:37:27.078Z,97.20
2018-04-09T22:39:54.571Z,97.30
2018-04-09T22:42:22.750Z,97.40
2018-04-09T22:44:50.154Z,97.40
2018-04-09T22:47:17.653Z,97.50
2018-04-09T22:49:45.082Z,97.50
2018-04-09T22:52:12.501Z,97.50
2018-04-09T22:54:39.906Z,97.40
2018-04-09T22:57:08.854Z,97.70
2018-04-09T22:59:36.254Z,97.30
2018-04-09T23:02:04.425Z,97.50
2018-04-09T23:04:31.830Z,97.40
2018-04-09T23:06:59.245Z,97.40
2018-04-09T23:09:26.670Z,97.50
2018-04-09T23:11:54.099Z,97.50
2018-04-09T23:14:21.500Z,97.50
2018-04-09T23:16:48.906Z,97.30
2018-04-09T23:19:16.328Z,97.30
2018-04-09T23:21:43.735Z,97.30
2018-04-09T23:24:11.911Z,97.20
2018-04-09T23:26:39.336Z,97.20
2018-04-09T23:29:07.510Z,97.20
2018-04-09T23:31:34.946Z,97.20
2018-04-09T23:34:03.120Z,97.20
2018-04-09T23:36:30.548Z,97.20
2018-04-09T23:38:58.722Z,97.20
2018-04-09T23:41:26.121Z,97.20
2018-04-09T23:43:53.525Z,97.20
2018-04-09T23:46:20.932Z,97.30
2018-04-09T23:48:49.106Z,97.40
2018-04-09T23:51:16.567Z,97.30
2018-04-09T23:53:43.974Z,97.30
2018-04-09T23:56:11.386Z,97.40
2018-04-09T23:58:38.986Z,97.40
